الصفحة الرئيسية
METAR-TAF:

METAR-TAF

مطار :

Northern Maine Regional Airport at Presque Isle

Presque Isle, مين, الولايات المتحدة

دائرة عرض: 46-41N, خط طول: 068-03W, ارتفاع: 163 متر

مراقبة الطقس الحالي

تاريخ ووقت الإصدار 1ساعة و 1 دقيقة قبل الساعة 06:56UTC
رياح هادئة
درجة الحرارة -4°درجة مئوية
الرطوبة 93%
ضغط 1024 hPa
الرؤية: 16.1 كم
سماء صافية

METAR: KPQI 180656Z AUTO 00000KT 10SM CLR M04/M05 A3023 RMK AO2 SLP268 T10391050

زمن: 03:57 (07:57 UTC)

توقعات

تاريخ ووقت الإصدار 2ساعات و 29 دقيقة قبل الساعة 05:28UTC
التوقعات صالحة من18 الساعة 06 UTC إلى 19 الساعة 06 UTC
ريح عقدة من الشمال
الرؤية: 10 كم
سماء صافية
من 18 الساعة 1700 UTC
ريح 4 عقدة من الشمال الشرقي
الرؤية: 10 كم
سماء صافية

TAF: KPQI 180528Z 1806/1906 00000KT P6SM SKC FM181700 05004KT P6SM SKC

أرصاد الطقس والتوقعات من أكثر من 4000 مطار (تقارير الطقس للمطار METAR والتنبؤ بالطقس بالمطارTAF).

المحطات المتاحة هي النقط الصفراء والحمراء على الخريطة.

حرك المؤشر فوق النقطة لمعرفة اسم المحطة.

ثم انقر لمعرفة أرصاد وتوقعات الطقس.

لتغيير الخارطة: اضغط على الأزرار الخضراء مع رمز الصليب الأسود للتكبير. على الزر الأخضر مع شرطة للتصغير، أو على الأسهم الخضراء للخرائط المجاورة.


METAR-TAF: